Time;durP1;ratioP1;P1;durP2;ratioP2;P2;SDS_P1;SDS_P2;PMS_P1;PMS_P2;Temp;Humidity;BMP_temperature;BMP_pressure;BME280_temperature;BME280_humidity;BME280_pressure;Samples;Min_cycle;Max_cycle;Signal;HPM_P1;HPM_P2
2022/04/05 00:02:24;;;;;;;3.97;3.78;;;;;;;6.73;96.53;99857.88;4969332;28;20030;-70
2022/04/05 00:04:50;;;;;;;4.20;4.00;;;;;;;6.75;96.44;99865.63;4950139;28;20097;-69
2022/04/05 00:07:15;;;;;;;4.20;4.00;;;;;;;6.79;96.50;99862.56;4957433;28;20084;-70
2022/04/05 00:09:41;;;;;;;4.22;4.05;;;;;;;6.75;96.66;99866.44;4951012;28;20509;-71
2022/04/05 00:12:07;;;;;;;4.07;3.97;;;;;;;6.75;96.92;99850.66;4956917;28;20017;-71
2022/04/05 00:14:32;;;;;;;4.20;4.00;;;;;;;6.79;96.85;99857.31;4949691;28;20118;-71
2022/04/05 00:16:57;;;;;;;4.35;4.15;;;;;;;6.76;97.00;99854.13;4966894;28;20025;-69
2022/04/05 00:19:23;;;;;;;4.40;4.20;;;;;;;6.83;97.17;99855.25;4968465;28;20897;-70
2022/04/05 00:21:49;;;;;;;4.55;4.35;;;;;;;6.77;97.20;99867.16;4967242;28;20029;-71
2022/04/05 00:24:17;;;;;;;4.65;4.45;;;;;;;6.83;97.03;99890.28;4916639;28;20027;-71
2022/04/05 00:26:42;;;;;;;4.88;4.60;;;;;;;6.91;96.80;99862.47;4949983;28;20030;-69
2022/04/05 00:29:08;;;;;;;5.28;5.07;;;;;;;6.88;97.16;99864.41;4969047;28;20437;-71
2022/04/05 00:31:34;;;;;;;5.22;4.85;;;;;;;6.86;97.50;99865.50;4953185;28;20233;-70
2022/04/05 00:33:59;;;;;;;5.20;5.00;;;;;;;6.88;96.96;99863.56;4963747;28;20018;-71
2022/04/05 00:36:24;;;;;;;5.10;4.90;;;;;;;6.92;96.94;99861.50;4975723;28;20007;-71
2022/04/05 00:38:50;;;;;;;5.30;5.10;;;;;;;6.95;96.98;99858.59;4945237;28;20014;-69
2022/04/05 00:41:15;;;;;;;5.35;5.05;;;;;;;6.93;97.50;99850.84;4948708;28;20018;-68
2022/04/05 00:43:40;;;;;;;5.60;5.35;;;;;;;6.91;97.75;99851.94;4956211;28;20485;-71
2022/04/05 00:46:06;;;;;;;6.05;5.72;;;;;;;6.98;97.49;99843.41;4964657;28;20030;-71
2022/04/05 00:48:53;;;;;;;5.88;5.57;;;;;;;7.02;97.09;99857.94;4943700;28;20125;-71
2022/04/05 00:51:19;;;;;;;6.30;5.90;;;;;;;7.06;97.17;99837.44;4980922;28;20023;-70
2022/04/05 00:53:47;;;;;;;6.32;6.03;;;;;;;6.96;98.03;99840.06;4957282;28;20011;-70
2022/04/05 00:56:16;;;;;;;6.07;5.78;;;;;;;6.97;98.27;99846.16;4956513;28;20060;-71
2022/04/05 00:58:42;;;;;;;6.47;6.07;;;;;;;7.10;97.72;99846.72;4973138;28;20010;-71
2022/04/05 01:01:09;;;;;;;6.72;6.25;;;;;;;7.07;97.76;99838.28;4952692;28;20013;-71
2022/04/05 01:03:34;;;;;;;6.75;6.35;;;;;;;7.07;98.41;99840.91;4947992;28;20025;-69
2022/04/05 01:06:00;;;;;;;6.97;6.47;;;;;;;7.04;98.66;99842.03;4953783;28;20478;-71
2022/04/05 01:08:25;;;;;;;6.63;6.22;;;;;;;7.12;98.38;99839.53;4931301;28;20018;-70
2022/04/05 01:10:51;;;;;;;6.30;5.90;;;;;;;7.20;98.53;99841.47;4950650;28;20033;-70
2022/04/05 01:13:18;;;;;;;6.60;6.10;;;;;;;7.19;98.21;99845.91;4976614;28;20018;-70
2022/04/05 01:15:43;;;;;;;6.15;5.85;;;;;;;7.16;98.90;99840.09;4977298;28;20049;-70
2022/04/05 01:18:09;;;;;;;6.55;6.15;;;;;;;7.20;98.53;99844.94;4973861;28;20537;-70
2022/04/05 01:20:34;;;;;;;7.55;7.13;;;;;;;7.33;98.59;99843.84;4956825;28;20022;-70
2022/04/05 01:23:00;;;;;;;7.57;6.97;;;;;;;7.31;98.86;99848.41;4943572;28;20057;-70
2022/04/05 01:25:25;;;;;;;7.28;6.88;;;;;;;7.30;98.99;99850.19;4944634;28;20340;-69
2022/04/05 01:27:52;;;;;;;7.40;6.90;;;;;;;7.22;99.54;99844.81;4964249;28;20041;-69
2022/04/05 01:30:17;;;;;;;7.57;7.13;;;;;;;7.37;99.57;99853.13;4936195;28;20015;-70
2022/04/05 01:32:43;;;;;;;8.13;7.63;;;;;;;7.33;99.89;99847.31;4974164;28;20030;-70
2022/04/05 01:35:09;;;;;;;8.85;8.25;;;;;;;7.35;100.00;99850.63;4958829;28;20022;-69
2022/04/05 01:37:35;;;;;;;9.20;8.60;;;;;;;7.37;100.00;99847.84;4958144;28;20526;-70
2022/04/05 01:40:01;;;;;;;9.25;8.55;;;;;;;7.34;100.00;99853.41;4943034;28;20559;-70
2022/04/05 01:42:26;;;;;;;10.65;9.95;;;;;;;7.39;100.00;99851.19;4959406;28;20022;-71
2022/04/05 01:44:51;;;;;;;10.45;9.65;;;;;;;7.44;100.00;99848.97;4955877;28;20031;-71
2022/04/05 01:47:17;;;;;;;10.70;9.88;;;;;;;7.45;100.00;99852.44;4938216;28;20034;-70
2022/04/05 01:49:44;;;;;;;11.48;10.48;;;;;;;7.49;100.00;99833.59;4957634;28;20118;-70
2022/04/05 01:52:10;;;;;;;10.95;10.05;;;;;;;7.58;100.00;99845.06;4951560;28;20772;-71
2022/04/05 01:54:36;;;;;;;10.95;10.15;;;;;;;7.61;100.00;99850.06;4969272;28;20030;-72
2022/04/05 01:57:01;;;;;;;10.57;9.77;;;;;;;7.70;100.00;99838.69;4959872;28;20118;-68
2022/04/05 01:59:28;;;;;;;11.13;10.13;;;;;;;7.72;100.00;99849.09;4971502;28;20489;-70
2022/04/05 02:01:53;;;;;;;10.38;9.63;;;;;;;7.83;100.00;99848.94;4960826;28;20730;-70
2022/04/05 02:04:19;;;;;;;11.38;10.38;;;;;;;7.75;100.00;99851.44;4955630;28;20034;-71
2022/04/05 02:06:44;;;;;;;10.82;10.00;;;;;;;7.72;100.00;99849.91;4974084;28;20036;-69
2022/04/05 02:09:13;;;;;;;11.00;10.13;;;;;;;7.79;100.00;99847.56;4966261;28;20011;-71
2022/04/05 02:11:39;;;;;;;11.02;10.23;;;;;;;7.73;100.00;99845.50;4954055;28;20062;-71
2022/04/05 02:14:05;;;;;;;9.55;8.85;;;;;;;7.82;100.00;99852.53;4970161;28;20022;-69
2022/04/05 02:16:30;;;;;;;9.93;9.15;;;;;;;7.77;100.00;99841.59;4971214;28;20251;-72
2022/04/05 02:18:56;;;;;;;10.02;9.32;;;;;;;7.77;100.00;99846.03;4968554;28;20015;-71
2022/04/05 02:21:22;;;;;;;9.50;8.85;;;;;;;7.88;100.00;99838.81;4951357;28;20615;-71
2022/04/05 02:23:47;;;;;;;9.35;8.60;;;;;;;7.81;100.00;99834.25;4963923;28;20150;-70
2022/04/05 02:26:12;;;;;;;9.10;8.50;;;;;;;7.80;100.00;99840.47;4957517;28;20049;-69
2022/04/05 02:28:38;;;;;;;8.15;7.63;;;;;;;7.92;100.00;99831.44;4954215;28;20026;-71
2022/04/05 02:31:03;;;;;;;8.90;8.30;;;;;;;7.85;100.00;99836.44;4948994;28;20277;-71
2022/04/05 02:33:29;;;;;;;9.48;8.77;;;;;;;7.88;100.00;99838.81;4960823;28;20023;-70
2022/04/05 02:35:54;;;;;;;9.70;9.00;;;;;;;7.94;100.00;99839.19;4936699;28;20015;-71
2022/04/05 02:38:20;;;;;;;9.23;8.63;;;;;;;7.97;100.00;99837.13;4954866;28;20035;-69
2022/04/05 02:40:45;;;;;;;9.60;8.88;;;;;;;7.90;100.00;99839.50;4954397;28;20022;-69
2022/04/05 02:43:10;;;;;;;9.68;8.98;;;;;;;7.90;100.00;99834.22;4936919;28;20646;-70
2022/04/05 02:45:36;;;;;;;9.57;8.68;;;;;;;7.94;100.00;99829.50;4918663;28;20018;-71
2022/04/05 02:48:02;;;;;;;9.63;8.70;;;;;;;7.97;100.00;99828.41;4953706;28;20025;-71
2022/04/05 02:50:28;;;;;;;8.95;8.35;;;;;;;8.00;100.00;99834.19;4962649;28;20015;-69
2022/04/05 02:52:53;;;;;;;9.68;8.98;;;;;;;8.05;100.00;99825.84;4952037;28;20514;-70
2022/04/05 02:55:18;;;;;;;9.07;8.38;;;;;;;8.02;100.00;99826.16;4954794;28;20568;-71
2022/04/05 02:57:45;;;;;;;9.27;8.57;;;;;;;8.03;100.00;99827.81;4941510;28;20010;-71
2022/04/05 03:00:11;;;;;;;9.20;8.60;;;;;;;8.15;100.00;99826.69;4944849;28;20447;-70
2022/04/05 03:02:37;;;;;;;9.35;8.65;;;;;;;8.13;100.00;99825.97;4965894;28;20019;-69
2022/04/05 03:05:05;;;;;;;9.55;8.75;;;;;;;8.17;100.00;99830.00;4956240;28;20510;-71
2022/04/05 03:07:30;;;;;;;9.40;8.70;;;;;;;8.15;100.00;99831.94;4972840;28;20033;-69
2022/04/05 03:09:55;;;;;;;9.57;8.88;;;;;;;8.14;100.00;99830.28;4955063;28;20011;-69
2022/04/05 03:12:21;;;;;;;9.68;8.98;;;;;;;8.09;100.00;99827.25;4942490;28;20033;-71
2022/04/05 03:14:46;;;;;;;9.95;9.25;;;;;;;8.15;100.00;99831.94;4935233;28;20021;-71
2022/04/05 03:17:12;;;;;;;9.25;8.65;;;;;;;8.13;100.00;99833.06;4925568;28;20002;-71
2022/04/05 03:19:37;;;;;;;9.75;9.05;;;;;;;8.21;100.00;99830.53;4946878;28;20313;-71
2022/04/05 03:22:05;;;;;;;10.13;9.43;;;;;;;8.20;100.00;99828.88;4965639;28;20885;-69
2022/04/05 03:24:31;;;;;;;10.45;9.63;;;;;;;8.19;100.00;99833.34;4918719;28;20007;-70
2022/04/05 03:26:57;;;;;;;10.52;9.73;;;;;;;8.24;100.00;99835.53;4921752;28;20046;-73
2022/04/05 03:29:22;;;;;;;10.60;9.80;;;;;;;8.26;100.00;99836.19;4966027;28;20027;-69
2022/04/05 03:31:48;;;;;;;10.73;9.93;;;;;;;8.24;100.00;99836.34;4959111;28;20027;-69
2022/04/05 03:34:14;;;;;;;11.05;10.15;;;;;;;8.30;100.00;99845.47;4953092;28;20920;-70
2022/04/05 03:36:41;;;;;;;10.85;9.95;;;;;;;8.32;100.00;99832.16;4955301;28;20034;-70
2022/04/05 03:39:06;;;;;;;10.77;9.98;;;;;;;8.33;100.00;99841.72;4956569;28;20019;-68
2022/04/05 03:41:32;;;;;;;10.88;10.10;;;;;;;8.24;100.00;99832.88;4975461;28;21257;-71
2022/04/05 03:43:58;;;;;;;11.05;10.15;;;;;;;8.32;100.00;99830.38;4974069;28;20018;-70
2022/04/05 03:46:23;;;;;;;10.65;9.85;;;;;;;8.36;100.00;99838.78;4974563;28;20029;-71
2022/04/05 03:48:49;;;;;;;11.40;10.50;;;;;;;8.33;100.00;99834.63;4954614;28;20033;-70
2022/04/05 03:51:14;;;;;;;11.10;10.18;;;;;;;8.34;100.00;99836.31;4968599;28;20876;-69
2022/04/05 03:53:39;;;;;;;11.52;10.52;;;;;;;8.37;100.00;99835.19;4970626;28;20269;-70
2022/04/05 03:56:05;;;;;;;10.88;10.07;;;;;;;8.34;100.00;99840.75;4956756;28;20018;-70
2022/04/05 03:58:30;;;;;;;11.73;10.73;;;;;;;8.45;100.00;99842.41;4954708;28;20011;-70
2022/04/05 04:00:56;;;;;;;11.43;10.52;;;;;;;8.36;100.00;99844.06;4947913;28;20085;-71
2022/04/05 04:03:21;;;;;;;11.20;10.40;;;;;;;8.40;100.00;99837.53;4944434;28;20067;-70
2022/04/05 04:05:46;;;;;;;10.20;9.50;;;;;;;8.41;100.00;99841.84;4954986;28;20752;-69
2022/04/05 04:08:12;;;;;;;10.70;9.80;;;;;;;8.46;100.00;99839.63;4935498;28;20592;-71
2022/04/05 04:10:37;;;;;;;9.88;9.07;;;;;;;8.40;100.00;99834.91;4967586;28;20025;-72
2022/04/05 04:13:03;;;;;;;10.25;9.48;;;;;;;8.33;100.00;99834.63;4954860;28;20076;-71
2022/04/05 04:15:28;;;;;;;10.68;9.77;;;;;;;8.41;100.00;99841.84;4963961;28;20344;-70
2022/04/05 04:17:53;;;;;;;10.18;9.38;;;;;;;8.35;100.00;99842.44;4961997;28;20346;-69
2022/04/05 04:20:19;;;;;;;11.23;10.43;;;;;;;8.35;100.00;99842.44;4959547;28;20040;-71
2022/04/05 04:22:44;;;;;;;10.57;9.77;;;;;;;8.35;100.00;99843.25;4957419;28;19999;-72
2022/04/05 04:25:10;;;;;;;11.85;10.75;;;;;;;8.44;100.00;99846.81;4957641;28;20015;-72
2022/04/05 04:27:35;;;;;;;10.32;9.57;;;;;;;8.43;100.00;99842.50;4942844;28;20104;-71
2022/04/05 04:30:01;;;;;;;10.80;9.98;;;;;;;8.40;100.00;99845.44;4964641;28;20030;-70
2022/04/05 04:32:26;;;;;;;10.88;10.07;;;;;;;8.39;100.00;99854.31;4965169;28;20850;-71
2022/04/05 04:34:52;;;;;;;11.85;10.68;;;;;;;8.41;100.00;99841.84;4961650;28;20491;-72
2022/04/05 04:37:17;;;;;;;11.00;10.10;;;;;;;8.43;100.00;99850.41;4951421;28;20023;-71
2022/04/05 04:39:42;;;;;;;12.07;11.07;;;;;;;8.42;100.00;99846.16;4964345;28;20018;-70
2022/04/05 04:42:08;;;;;;;11.27;10.38;;;;;;;8.46;100.00;99850.19;4952744;28;20014;-69
2022/04/05 04:44:33;;;;;;;10.98;10.18;;;;;;;8.46;100.00;99846.69;4969262;28;20007;-70
2022/04/05 04:46:58;;;;;;;11.65;10.68;;;;;;;8.47;100.00;99851.81;4972203;28;21022;-73
2022/04/05 04:49:24;;;;;;;11.90;10.90;;;;;;;8.47;100.00;99843.91;4960320;28;20022;-72
2022/04/05 04:51:49;;;;;;;11.60;10.70;;;;;;;8.43;100.00;99855.69;4962249;28;20125;-72
2022/04/05 04:54:15;;;;;;;12.07;11.02;;;;;;;8.50;100.00;99856.84;4955578;28;20099;-71
2022/04/05 04:56:40;;;;;;;12.45;11.45;;;;;;;8.53;100.00;99866.25;4960225;28;20022;-69
2022/04/05 04:59:05;;;;;;;12.15;11.25;;;;;;;8.48;100.00;99868.50;4949562;28;20025;-69
2022/04/05 05:01:31;;;;;;;12.13;11.13;;;;;;;8.58;100.00;99862.19;4961454;28;20657;-72
2022/04/05 05:03:56;;;;;;;12.02;10.93;;;;;;;8.59;100.00;99869.13;4962015;28;20011;-71
2022/04/05 05:06:21;;;;;;;11.52;10.52;;;;;;;8.63;100.00;99871.47;4953625;28;20023;-72
2022/04/05 05:08:47;;;;;;;11.43;10.40;;;;;;;8.59;100.00;99866.50;4956595;28;20018;-72
2022/04/05 05:11:12;;;;;;;12.68;11.63;;;;;;;8.62;100.00;99861.91;4960941;28;20019;-69
2022/04/05 05:13:37;;;;;;;12.32;11.23;;;;;;;8.61;100.00;99868.16;4974313;28;20993;-68
2022/04/05 05:16:03;;;;;;;12.07;10.98;;;;;;;8.59;100.00;99861.22;4954665;28;20219;-71
2022/04/05 05:18:29;;;;;;;12.27;11.23;;;;;;;8.69;100.00;99866.44;4969232;28;20117;-73
2022/04/05 05:20:54;;;;;;;11.98;11.07;;;;;;;8.74;100.00;99876.56;4949663;28;20032;-71
2022/04/05 05:23:20;;;;;;;13.25;11.88;;;;;;;8.77;100.00;99873.63;4951191;28;20034;-71
2022/04/05 05:25:46;;;;;;;12.95;11.95;;;;;;;8.69;100.00;99871.72;4954023;28;20756;-68
2022/04/05 05:28:11;;;;;;;13.52;12.32;;;;;;;8.64;100.00;99873.13;4953168;28;20101;-72
2022/04/05 05:30:37;;;;;;;13.70;12.50;;;;;;;8.63;100.00;99879.38;4948988;28;20489;-72
2022/04/05 05:33:02;;;;;;;13.95;12.75;;;;;;;8.68;100.00;99875.34;4953141;28;20009;-71
2022/04/05 05:35:28;;;;;;;14.88;13.48;;;;;;;8.76;100.00;99871.97;4955563;28;20029;-73
2022/04/05 05:37:56;;;;;;;14.75;13.45;;;;;;;8.72;100.00;99874.06;4973881;28;20274;-70
2022/04/05 05:40:21;;;;;;;15.27;13.80;;;;;;;8.72;100.00;99884.63;4970157;28;20647;-72
2022/04/05 05:42:50;;;;;;;14.75;13.45;;;;;;;8.84;100.00;99880.00;4973592;28;20045;-72
2022/04/05 05:45:16;;;;;;;14.20;12.90;;;;;;;8.81;100.00;99890.00;4967555;28;20188;-73
2022/04/05 05:47:41;;;;;;;14.73;13.43;;;;;;;8.77;100.00;99881.53;4967589;28;20077;-72
2022/04/05 05:50:08;;;;;;;14.57;13.27;;;;;;;8.76;100.00;99883.34;4941870;28;20050;-72
2022/04/05 05:52:34;;;;;;;15.75;14.25;;;;;;;8.80;100.00;99885.69;4923880;28;20774;-72
2022/04/05 05:54:59;;;;;;;16.00;14.40;;;;;;;8.91;100.00;99890.75;4964742;28;20011;-72
2022/04/05 05:57:24;;;;;;;15.55;14.10;;;;;;;8.85;100.00;99881.63;4953184;28;20546;-71
2022/04/05 05:59:50;;;;;;;15.40;13.88;;;;;;;8.85;100.00;99896.63;4959247;28;20056;-72
2022/04/05 06:02:15;;;;;;;16.00;14.52;;;;;;;8.83;100.00;99888.88;4944574;28;20027;-71
2022/04/05 06:04:40;;;;;;;15.27;14.00;;;;;;;8.84;100.00;99889.69;4964810;28;20022;-70
2022/04/05 06:07:06;;;;;;;15.93;14.48;;;;;;;8.86;100.00;99893.84;4962297;28;20031;-73
2022/04/05 06:09:31;;;;;;;15.57;14.20;;;;;;;8.96;100.00;99898.25;4940273;28;20550;-73
2022/04/05 06:11:57;;;;;;;16.48;14.95;;;;;;;8.96;100.00;99900.91;4976148;28;20007;-73
2022/04/05 06:14:22;;;;;;;16.92;15.43;;;;;;;8.95;100.00;99897.41;4969816;28;20027;-72
2022/04/05 06:16:48;;;;;;;15.90;14.45;;;;;;;8.92;100.00;99906.44;4948522;28;20023;-70
2022/04/05 06:19:13;;;;;;;15.70;14.10;;;;;;;8.91;100.00;99907.44;4957423;28;20868;-69
2022/04/05 06:21:38;;;;;;;15.93;14.55;;;;;;;8.96;100.00;99911.47;4970406;28;20178;-72
2022/04/05 06:24:04;;;;;;;16.33;14.70;;;;;;;8.96;100.00;99914.09;4956629;28;20947;-72
2022/04/05 06:26:30;;;;;;;15.82;14.43;;;;;;;8.99;100.00;99908.53;4938944;28;20046;-72
2022/04/05 06:28:56;;;;;;;15.70;14.30;;;;;;;9.13;100.00;99910.66;4942469;28;20023;-70
2022/04/05 06:31:22;;;;;;;15.60;14.20;;;;;;;9.01;100.00;99906.53;4964329;28;21176;-71
2022/04/05 06:33:47;;;;;;;16.92;15.20;;;;;;;9.02;100.00;99919.59;4969613;28;20029;-71
2022/04/05 06:36:13;;;;;;;15.50;14.00;;;;;;;9.02;100.00;99916.13;4958697;28;20824;-72
2022/04/05 06:38:38;;;;;;;15.00;13.70;;;;;;;8.98;100.00;99907.66;4972595;28;20019;-72
2022/04/05 06:41:03;;;;;;;15.30;14.00;;;;;;;8.99;100.00;99922.53;4956095;28;20401;-70
2022/04/05 06:43:30;;;;;;;15.05;13.65;;;;;;;8.97;100.00;99921.00;4957860;28;20022;-70
2022/04/05 06:45:55;;;;;;;16.00;14.52;;;;;;;9.06;100.00;99925.41;4975126;28;20143;-71
2022/04/05 06:48:20;;;;;;;15.25;13.98;;;;;;;9.16;100.00;99922.72;4940015;28;20009;-71
2022/04/05 06:50:47;;;;;;;15.40;14.02;;;;;;;9.03;100.00;99925.72;4965787;28;20023;-73
2022/04/05 06:53:12;;;;;;;16.25;14.75;;;;;;;9.00;100.00;99923.38;4972875;28;20025;-67
2022/04/05 06:55:37;;;;;;;16.55;15.00;;;;;;;9.02;100.00;99924.06;4976759;28;20022;-71
2022/04/05 06:58:03;;;;;;;15.63;14.23;;;;;;;9.05;100.00;99935.16;4943882;28;20014;-72
2022/04/05 07:00:28;;;;;;;16.33;14.63;;;;;;;9.03;100.00;99928.34;4956351;28;20015;-72
2022/04/05 07:02:54;;;;;;;15.85;14.45;;;;;;;9.08;100.00;99928.72;4968516;28;20092;-71
2022/04/05 07:05:19;;;;;;;15.90;14.38;;;;;;;9.13;100.00;99926.50;4939166;28;20069;-71
2022/04/05 07:07:45;;;;;;;15.02;13.73;;;;;;;9.17;100.00;99930.50;4941613;28;20774;-72
2022/04/05 07:10:12;;;;;;;16.55;14.05;;;;;;;9.09;100.00;99925.13;4945885;28;20014;-72
2022/04/05 07:12:37;;;;;;;15.05;13.75;;;;;;;9.10;100.00;99932.06;4921932;28;20014;-72
2022/04/05 07:15:04;;;;;;;14.75;13.45;;;;;;;9.13;100.00;99926.50;4957450;28;20118;-69
2022/04/05 07:17:29;;;;;;;15.23;13.75;;;;;;;9.16;100.00;99933.28;4939125;28;20083;-72
2022/04/05 07:19:55;;;;;;;15.50;14.10;;;;;;;9.13;100.00;99926.50;4930615;28;20010;-71
2022/04/05 07:22:20;;;;;;;14.63;13.38;;;;;;;9.19;100.00;99938.25;4945681;28;20703;-72
2022/04/05 07:24:46;;;;;;;13.75;12.55;;;;;;;9.20;100.00;99939.94;4954556;28;20045;-71
2022/04/05 07:27:12;;;;;;;13.98;12.70;;;;;;;9.25;100.00;99930.59;4938544;28;20042;-69
2022/04/05 07:29:37;;;;;;;14.02;12.82;;;;;;;9.22;100.00;99922.13;4941181;28;20765;-72
2022/04/05 07:32:03;;;;;;;13.93;12.70;;;;;;;9.17;100.00;99932.31;4961178;28;20015;-72
2022/04/05 07:34:28;;;;;;;13.68;12.48;;;;;;;9.21;100.00;99931.88;4957512;28;20083;-72
2022/04/05 07:36:54;;;;;;;13.00;11.80;;;;;;;9.18;100.00;99929.53;4955029;28;20026;-72
2022/04/05 07:39:21;;;;;;;13.77;12.48;;;;;;;9.16;100.00;99925.38;4975150;28;20073;-69
2022/04/05 07:41:47;;;;;;;13.35;12.05;;;;;;;9.16;100.00;99920.91;4957432;28;20329;-71
2022/04/05 07:44:13;;;;;;;12.77;11.60;;;;;;;9.22;100.00;99925.63;4969400;28;20007;-72
2022/04/05 07:46:38;;;;;;;11.70;10.65;;;;;;;9.29;100.00;99931.09;4967487;28;20065;-69
2022/04/05 07:49:04;;;;;;;11.50;10.50;;;;;;;9.39;100.00;99925.78;4972764;28;20976;-69
2022/04/05 07:51:29;;;;;;;10.38;9.52;;;;;;;9.28;100.00;99930.28;4961185;28;20371;-72
2022/04/05 07:53:55;;;;;;;10.60;9.80;;;;;;;9.37;100.00;99930.38;4956289;28;20788;-72
2022/04/05 07:56:20;;;;;;;10.23;9.40;;;;;;;9.28;100.00;99929.47;4972738;28;20030;-73
2022/04/05 07:58:45;;;;;;;10.65;9.75;;;;;;;9.31;100.00;99936.25;4973630;28;20015;-72
2022/04/05 08:01:11;;;;;;;10.32;9.43;;;;;;;9.30;100.00;99939.88;4960634;28;20006;-70
2022/04/05 08:03:37;;;;;;;10.10;9.20;;;;;;;9.30;100.00;99931.97;4962023;28;21007;-69
2022/04/05 08:06:03;;;;;;;9.82;9.02;;;;;;;9.32;100.00;99945.81;4952036;28;20262;-72
2022/04/05 08:08:29;;;;;;;9.85;9.05;;;;;;;9.39;100.00;99931.06;4953966;28;20384;-72
2022/04/05 08:10:54;;;;;;;9.93;9.10;;;;;;;9.39;100.00;99931.06;4956614;28;20033;-69
2022/04/05 08:13:20;;;;;;;9.18;8.40;;;;;;;9.41;100.00;99944.94;4955014;28;20015;-69
2022/04/05 08:15:45;;;;;;;9.18;8.25;;;;;;;9.43;100.00;99949.09;4950961;28;20019;-72
2022/04/05 08:18:10;;;;;;;9.45;8.65;;;;;;;9.38;100.00;99929.41;4965275;28;20083;-72
2022/04/05 08:20:36;;;;;;;9.65;8.95;;;;;;;9.53;100.00;99942.91;4946948;28;20015;-71
2022/04/05 08:23:03;;;;;;;8.98;8.38;;;;;;;9.50;100.00;99949.31;4938127;28;20027;-73
2022/04/05 08:25:28;;;;;;;10.60;9.45;;;;;;;9.51;100.00;99948.34;4936575;28;20267;-69
2022/04/05 08:27:54;;;;;;;9.90;9.20;;;;;;;9.56;99.56;99946.09;4939890;28;20319;-72
2022/04/05 08:30:20;;;;;;;10.10;9.10;;;;;;;9.61;99.89;99946.47;4956272;28;20011;-72
2022/04/05 08:32:45;;;;;;;10.43;9.63;;;;;;;9.65;99.56;99946.19;4948807;28;20022;-74
2022/04/05 08:35:12;;;;;;;10.48;9.63;;;;;;;9.66;99.79;99947.81;4952555;28;20121;-70
2022/04/05 08:37:38;;;;;;;10.32;9.52;;;;;;;9.68;98.88;99954.63;4948233;28;20103;-71
2022/04/05 08:40:06;;;;;;;10.27;9.48;;;;;;;9.73;99.29;99959.44;4938088;28;20042;-72
2022/04/05 08:42:33;;;;;;;11.52;10.45;;;;;;;9.86;98.09;99957.28;4955880;28;20023;-69
2022/04/05 08:44:59;;;;;;;11.27;10.48;;;;;;;9.90;97.58;99969.19;4955585;28;20021;-73
2022/04/05 08:47:25;;;;;;;11.65;10.65;;;;;;;9.83;98.70;99965.50;4954971;28;20030;-71
2022/04/05 08:49:50;;;;;;;12.10;11.13;;;;;;;9.86;97.83;99969.66;4951074;28;20039;-70
2022/04/05 08:52:15;;;;;;;12.55;11.40;;;;;;;9.85;98.11;99968.81;4970201;28;20525;-72
2022/04/05 08:54:41;;;;;;;12.35;11.30;;;;;;;9.91;98.08;99970.88;4953630;28;20026;-73
2022/04/05 08:57:06;;;;;;;12.02;11.02;;;;;;;9.95;98.12;99961.63;4951529;28;20022;-71
2022/04/05 08:59:31;;;;;;;12.25;11.15;;;;;;;10.08;97.21;99963.91;4944251;28;20429;-72
2022/04/05 09:01:57;;;;;;;13.20;12.20;;;;;;;10.05;97.49;99961.53;4950344;28;20018;-72
2022/04/05 09:04:23;;;;;;;12.68;11.73;;;;;;;10.05;97.34;99958.09;4923777;28;20017;-69
2022/04/05 09:06:48;;;;;;;12.50;11.50;;;;;;;10.16;95.73;99965.78;4962989;28;20033;-72
2022/04/05 09:09:17;;;;;;;12.50;11.30;;;;;;;10.18;96.58;99965.63;4951821;28;20702;-72
2022/04/05 09:11:49;;;;;;;12.82;11.65;;;;;;;10.22;95.16;99967.78;4948098;28;20897;-71
2022/04/05 09:14:28;;;;;;;11.80;10.82;;;;;;;10.35;93.89;99969.25;4935389;28;20992;-72
2022/04/05 09:17:05;;;;;;;11.70;10.80;;;;;;;10.29;93.99;99966.22;4962498;28;20528;-72
2022/04/05 09:19:38;;;;;;;11.60;10.52;;;;;;;10.34;94.45;99962.28;4942929;28;20837;-72
2022/04/05 09:22:04;;;;;;;12.02;10.98;;;;;;;10.35;94.28;99971.88;4943599;28;20307;-73
2022/04/05 09:24:37;;;;;;;11.30;10.43;;;;;;;10.32;93.57;99963.25;4966014;28;20518;-72
2022/04/05 09:27:02;;;;;;;12.30;11.20;;;;;;;10.38;92.99;99963.63;4945299;28;20451;-69
2022/04/05 09:29:41;;;;;;;11.98;10.98;;;;;;;10.39;93.28;99970.59;4951285;28;20010;-72
2022/04/05 09:32:06;;;;;;;11.75;10.75;;;;;;;10.37;94.40;99968.09;4965385;28;20133;-72
2022/04/05 09:34:32;;;;;;;12.15;11.07;;;;;;;10.39;94.31;99965.31;4953718;28;20083;-73
2022/04/05 09:36:58;;;;;;;11.77;10.75;;;;;;;10.39;93.64;99975.88;4933556;28;20104;-72
2022/04/05 09:39:24;;;;;;;12.00;10.90;;;;;;;10.42;93.55;99975.56;4920291;28;20089;-69
2022/04/05 09:42:02;;;;;;;11.40;10.50;;;;;;;10.41;92.23;99971.28;4956842;28;20109;-71
2022/04/05 09:44:29;;;;;;;11.80;10.80;;;;;;;10.45;93.04;99978.75;4960791;28;20010;-69
2022/04/05 09:47:02;;;;;;;12.40;11.30;;;;;;;10.40;92.78;99982.84;4959772;28;20138;-71
2022/04/05 09:49:34;;;;;;;11.48;10.57;;;;;;;10.38;92.82;99985.66;4968182;28;20502;-69
2022/04/05 09:51:59;;;;;;;10.88;10.05;;;;;;;10.43;92.44;99987.81;4959879;28;20080;-69
2022/04/05 09:54:29;;;;;;;12.02;10.93;;;;;;;10.44;93.54;99981.56;4937822;28;21028;-71
2022/04/05 09:57:06;;;;;;;11.15;10.25;;;;;;;10.58;92.51;99991.56;4955336;28;20021;-71
2022/04/05 09:59:50;;;;;;;11.40;10.50;;;;;;;10.53;91.96;99991.19;4939147;28;20029;-70
2022/04/05 10:02:16;;;;;;;11.55;10.65;;;;;;;10.51;92.32;99984.41;4964599;28;20112;-74
2022/04/05 10:04:59;;;;;;;12.35;11.25;;;;;;;10.48;91.68;99996.13;4972671;28;20021;-70
2022/04/05 10:07:29;;;;;;;12.38;11.20;;;;;;;10.49;91.12;99979.25;4958136;28;20031;-72
2022/04/05 10:09:54;;;;;;;11.90;10.90;;;;;;;10.49;91.80;99984.53;4952544;28;20041;-73
2022/04/05 10:12:20;;;;;;;12.85;11.85;;;;;;;10.61;91.25;99985.13;4970679;28;20015;-69
2022/04/05 10:14:45;;;;;;;11.18;10.27;;;;;;;10.77;89.96;99987.03;4953817;28;20015;-67
2022/04/05 10:17:11;;;;;;;11.55;10.63;;;;;;;10.87;89.19;99997.50;4998870;28;20510;-74
2022/04/05 10:19:36;;;;;;;11.27;10.23;;;;;;;11.00;89.10;99997.94;4969645;28;20908;-73
2022/04/05 10:22:01;;;;;;;11.23;10.32;;;;;;;11.10;89.21;99995.97;4946852;28;20026;-73
2022/04/05 10:24:28;;;;;;;11.23;10.10;;;;;;;11.33;87.95;99990.94;4956021;28;20121;-73
2022/04/05 10:26:53;;;;;;;11.15;10.27;;;;;;;11.57;86.87;99999.94;4957589;28;20074;-69
2022/04/05 10:29:19;;;;;;;11.27;10.32;;;;;;;11.69;87.45;99996.00;4971177;28;20022;-71
2022/04/05 10:31:50;;;;;;;11.35;10.45;;;;;;;11.75;86.88;99988.41;4928616;28;20446;-72
2022/04/05 10:34:24;;;;;;;11.38;10.30;;;;;;;11.77;84.82;99997.84;4939104;28;20080;-72
2022/04/05 10:37:16;;;;;;;11.35;10.25;;;;;;;11.85;84.46;99997.03;4930557;28;20049;-69
2022/04/05 10:39:41;;;;;;;10.25;9.45;;;;;;;11.84;84.40;99998.88;4958741;28;20096;-69
2022/04/05 10:42:13;;;;;;;9.38;8.68;;;;;;;11.79;82.78;99995.03;4964928;28;21103;-70
2022/04/05 10:44:47;;;;;;;9.90;9.10;;;;;;;11.76;83.22;99996.19;4961229;28;20127;-69
2022/04/05 10:47:14;;;;;;;9.52;8.75;;;;;;;11.78;82.27;99988.09;4923882;28;20023;-71
2022/04/05 10:49:44;;;;;;;9.45;8.75;;;;;;;11.81;83.00;99993.06;4952259;28;20667;-69
2022/04/05 10:52:31;;;;;;;9.02;8.43;;;;;;;11.99;83.48;99985.81;4969672;28;20037;-72
2022/04/05 10:55:04;;;;;;;9.57;8.75;;;;;;;11.80;82.73;99988.72;4953456;28;20033;-69
2022/04/05 10:57:30;;;;;;;9.63;8.87;;;;;;;11.76;83.33;99987.41;4971880;28;20385;-71
2022/04/05 11:00:10;;;;;;;9.65;8.88;;;;;;;11.73;83.14;99991.22;4973769;28;20098;-72
2022/04/05 11:02:41;;;;;;;7.93;7.43;;;;;;;11.64;81.37;99982.41;4956914;28;20019;-69
2022/04/05 11:05:12;;;;;;;7.78;7.18;;;;;;;11.74;81.07;99984.09;4962415;28;20045;-70
2022/04/05 11:07:58;;;;;;;7.90;7.38;;;;;;;11.83;81.07;99983.94;4957203;28;20096;-69
2022/04/05 11:10:45;;;;;;;7.28;6.88;;;;;;;11.85;80.40;99974.00;4956925;28;20552;-72
2022/04/05 11:13:15;;;;;;;6.82;6.32;;;;;;;12.16;79.40;99996.44;4951371;28;20042;-71
2022/04/05 11:15:41;;;;;;;7.43;6.82;;;;;;;12.27;78.51;99988.13;4974522;28;20050;-72
2022/04/05 11:18:07;;;;;;;6.82;6.43;;;;;;;12.27;77.90;99982.00;4956423;28;20015;-72
2022/04/05 11:20:36;;;;;;;7.53;7.00;;;;;;;12.28;78.64;99979.19;4951063;28;20022;-72
2022/04/05 11:23:02;;;;;;;8.15;7.40;;;;;;;12.25;79.71;99978.69;4943895;28;20050;-71